Aérodrome :
LOGIN :

S'inscrire | Disclaimer

   EN    FR    IT 

 










Légende :    VFR   VFR Marginal   IFR   IFR Intensif   IFR Très Intensif
Visi : 
Plafond : 
>= 8 km
>= 3000ft
5 à 8 km
1000 à 3000 ft
1500m à 5 km
500 à 1000 ft
800 à 1500m
200 à 500 ft
< 800m
< 200 ft
Symboles :   Orages  Brouillard  Fortes neiges  Fortes précipitations  Vent > 20 kt
SIGMETs :   Divers  Orages  Givrage  Turbulence  Onde Orograph.  Cendres Volcan.






- Altitude de l'aérodrome : 529 ft
- Code IATA : CHR


LFLX - Chateauroux

DERNIER METAR :
  • 202000Z AUTO 25013KT 5000 -DZ BR FEW008 BKN014 BKN020 09/08 Q1024 TEMPO 30020G35KT 2500 RA BKN012 SCT020TCU

METARs EXPIRÉS :
  • 201930Z AUTO 25017KT 9999 -RA BKN018 OVC028 10/08 Q1024 TEMPO 2500 RA BKN012 SCT020TCU BECMG 27006KT
  • 201900Z AUTO 24017KT 9999 OVC023 11/07 Q1023 TEMPO 30020G35KT 2500 RA BKN012 SCT020TCU
  • 201830Z AUTO 23016KT 9999 OVC028 11/06 Q1023 TEMPO 30020G35KT 2500 RA BKN012 SCT020TCU
  • 201800Z AUTO 23016KT 9999 OVC030 11/05 Q1022 TEMPO 30020G35KT 2500 RA BKN012 SCT020TCU
  • 201730Z AUTO 23016KT 9999 BKN034 OVC040 11/05 Q1022 TEMPO 30020G35KT 2500 RA BKN012 SCT020TCU
  • 201700Z AUTO 23014KT 9999 BKN043 OVC050 11/05 Q1022 TEMPO 30020G35KT 2500 RA BKN012 SCT020TCU

TAF TAF LFLX
Valide du 20 à 18h jusqu'au 22 à 00h UTC


201700Z 2018/2124 24015G25KT 9999 BKN020 BKN040
TEMPO 2018/2021 30020G35KT 2500 RA BKN012 SCT020TCU
BECMG 2021/2023 27006KT CAVOK
BECMG 2101/2103 2500 BR
PROB40
TEMPO 2103/2110 0400 FG VV///
BECMG 2110/2112 CAVOK



MET'MAP, la Météo Aéronautique d'un coup d'oeil ! - Copyright ORBIFLY Décembre 2007 - Disclaimer

ORBIFLY MET'MAP TEAM :

Programmation & Développement : Alexandra Zaïnal
Sur une idée originale de : Baudouin d'Aumeries
Assistance à la programmation : Marc-Olivier Méhu
Soutien technique & logistique : Manuel Goepfert

Contact : metmap@orbifly.com




SOURCES & CREDITS :

   NOAA